createdAt,value
2023-03-21T04:41:16.879Z,100380.34
2023-03-21T04:44:21.046Z,100388.12
2023-03-21T04:47:24.059Z,100382.41
2023-03-21T04:50:29.843Z,100382.66
2023-03-21T04:53:32.632Z,100383.81
2023-03-21T04:56:36.406Z,100387.47
2023-03-21T04:59:39.145Z,100382.41
2023-03-21T05:02:42.498Z,100389.41
2023-03-21T05:05:46.046Z,100385.03
2023-03-21T05:08:49.357Z,100390.97
2023-03-21T05:11:53.087Z,100388.03
2023-03-21T05:14:56.710Z,100384.75
2023-03-21T05:17:59.427Z,100396.66
2023-03-21T05:21:04.249Z,100398.81
2023-03-21T05:24:14.408Z,100397.38
2023-03-21T05:27:36.005Z,100398.47
2023-03-21T05:30:46.014Z,100390.94
2023-03-21T05:33:49.215Z,100402.25
2023-03-21T05:36:52.078Z,100405.53
2023-03-21T05:39:56.406Z,100396.34
2023-03-21T05:42:59.936Z,100399.44
2023-03-21T05:46:02.755Z,100405.47
2023-03-21T05:49:05.861Z,100405.19
2023-03-21T05:52:09.632Z,100413.16
2023-03-21T05:55:15.320Z,100414.44
2023-03-21T05:58:18.558Z,100414.72
2023-03-21T06:01:22.439Z,100418.66
2023-03-21T06:04:27.088Z,100422.34
2023-03-21T06:07:30.109Z,100426.69
2023-03-21T06:10:33.039Z,100425.50
2023-03-21T06:13:38.286Z,100416.63
2023-03-21T06:16:41.546Z,100421.81
2023-03-21T06:19:44.915Z,100414.00
2023-03-21T06:22:51.380Z,100426.81
2023-03-21T06:25:54.112Z,100426.03
2023-03-21T06:29:00.186Z,100422.16
2023-03-21T06:32:03.495Z,100423.84
2023-03-21T06:35:07.447Z,100423.44
2023-03-21T06:38:10.924Z,100430.78
2023-03-21T06:41:15.666Z,100426.63
2023-03-21T06:44:19.570Z,100430.37
2023-03-21T06:47:24.487Z,100425.88
2023-03-21T06:50:27.104Z,100427.47
2023-03-21T06:53:31.451Z,100421.88
2023-03-21T06:56:38.198Z,100425.97
2023-03-21T06:59:44.442Z,100434.28
2023-03-21T07:02:50.996Z,100437.13
2023-03-21T07:05:55.013Z,100441.91
2023-03-21T07:09:04.849Z,100437.91
2023-03-21T07:12:08.618Z,100448.50
2023-03-21T07:15:12.414Z,100450.47
2023-03-21T07:18:15.571Z,100441.59
2023-03-21T07:21:18.982Z,100435.38
2023-03-21T07:24:22.087Z,100442.03
2023-03-21T07:27:24.931Z,100441.69
2023-03-21T07:30:28.054Z,100445.97
2023-03-21T07:33:33.185Z,100443.09
2023-03-21T07:36:37.781Z,100438.91
2023-03-21T07:39:43.320Z,100445.22
2023-03-21T07:42:49.919Z,100439.78
2023-03-21T07:46:01.246Z,100439.03
2023-03-21T07:49:06.010Z,100435.28
2023-03-21T07:52:08.841Z,100437.53
2023-03-21T07:55:11.824Z,100434.72
2023-03-21T07:58:14.386Z,100431.44
2023-03-21T08:01:17.315Z,100426.66
2023-03-21T08:04:20.038Z,100427.41
2023-03-21T08:07:22.564Z,100436.72
2023-03-21T08:10:26.260Z,100435.38
2023-03-21T08:13:29.108Z,100430.53
2023-03-21T08:16:32.143Z,100427.88
2023-03-21T08:19:35.727Z,100433.03
2023-03-21T08:22:39.423Z,100426.31
2023-03-21T08:25:42.076Z,100431.56
2023-03-21T08:28:45.446Z,100429.69
2023-03-21T08:31:48.030Z,100431.38
2023-03-21T08:34:51.133Z,100439.09
2023-03-21T08:37:53.800Z,100431.66
2023-03-21T08:40:59.197Z,100428.38
2023-03-21T08:44:04.358Z,100439.56
2023-03-21T08:47:08.331Z,100434.22
2023-03-21T08:50:14.654Z,100439.34
2023-03-21T08:53:17.992Z,100429.53
2023-03-21T08:56:21.245Z,100437.91
2023-03-21T08:59:24.402Z,100430.75
2023-03-21T09:02:27.272Z,100430.88
2023-03-21T09:05:30.128Z,100425.62
2023-03-21T09:08:33.017Z,100431.38
2023-03-21T09:11:36.053Z,100425.78
2023-03-21T09:14:38.736Z,100431.59
2023-03-21T09:17:48.993Z,100424.56
2023-03-21T09:20:51.915Z,100431.34
2023-03-21T09:23:58.558Z,100420.16
2023-03-21T09:27:02.120Z,100428.13
2023-03-21T09:30:07.548Z,100431.78
2023-03-21T09:33:13.267Z,100433.34
2023-03-21T09:36:19.190Z,100436.75
2023-03-21T09:39:22.632Z,100435.84
2023-03-21T09:42:51.371Z,100434.00
2023-03-21T09:46:10.249Z,100425.59
2023-03-21T09:49:31.076Z,100430.00
2023-03-21T09:53:13.980Z,100427.25
2023-03-21T09:56:17.693Z,100432.59
2023-03-21T09:59:38.302Z,100427.81
2023-03-21T10:02:49.609Z,100424.88
2023-03-21T10:05:58.846Z,100430.31
2023-03-21T10:09:15.265Z,100427.91
2023-03-21T10:12:23.147Z,100426.22
2023-03-21T10:15:26.832Z,100423.31
2023-03-21T10:18:32.225Z,100423.59
2023-03-21T10:21:59.072Z,100419.25
2023-03-21T10:25:01.337Z,100414.75
2023-03-21T10:28:07.449Z,100416.72
2023-03-21T10:31:15.508Z,100410.41
2023-03-21T10:34:32.205Z,100403.09
2023-03-21T10:37:36.398Z,100411.03
2023-03-21T10:40:39.108Z,100403.91
2023-03-21T10:43:42.486Z,100400.06
2023-03-21T10:46:56.366Z,100408.53
2023-03-21T10:50:13.763Z,100398.41
2023-03-21T10:53:23.134Z,100399.34
2023-03-21T10:56:32.988Z,100391.56
2023-03-21T10:59:43.142Z,100398.62
2023-03-21T11:02:50.443Z,100389.41
2023-03-21T11:05:57.398Z,100394.16
2023-03-21T11:09:06.700Z,100385.87
2023-03-21T11:12:18.949Z,100376.13
2023-03-21T11:15:33.185Z,100373.09
2023-03-21T11:18:44.076Z,100373.06
2023-03-21T11:21:47.080Z,100362.53
2023-03-21T11:24:53.415Z,100363.13
2023-03-21T11:27:56.972Z,100364.34
2023-03-21T11:31:02.826Z,100363.81
2023-03-21T11:34:08.362Z,100353.06
2023-03-21T11:37:21.087Z,100368.94
2023-03-21T11:40:27.101Z,100345.28
2023-03-21T11:43:32.772Z,100344.63
2023-03-21T11:46:41.409Z,100344.41
2023-03-21T11:49:44.246Z,100341.00
2023-03-21T11:53:36.719Z,100338.53
2023-03-21T11:56:45.325Z,100336.34
2023-03-21T12:00:16.479Z,100323.47
2023-03-21T12:03:49.517Z,100320.75
2023-03-21T12:06:52.854Z,100317.72
2023-03-21T12:10:33.475Z,100324.81
2023-03-21T12:13:53.393Z,100319.88
2023-03-21T12:17:24.753Z,100322.84
2023-03-21T12:20:30.622Z,100311.94
2023-03-21T12:23:44.591Z,100315.00
2023-03-21T12:26:59.414Z,100310.25
2023-03-21T12:30:14.754Z,100314.41
2023-03-21T12:33:27.137Z,100312.53
2023-03-21T12:37:03.616Z,100307.97
2023-03-21T12:40:22.309Z,100311.25
2023-03-21T12:43:52.801Z,100296.94
2023-03-21T12:47:22.575Z,100287.69
2023-03-21T12:50:32.866Z,100283.44
2023-03-21T12:54:07.628Z,100272.41
2023-03-21T12:57:15.652Z,100279.66
2023-03-21T13:00:23.979Z,100270.53
2023-03-21T13:03:43.251Z,100278.78
2023-03-21T13:06:48.098Z,100269.94
2023-03-21T13:09:55.086Z,100271.66
2023-03-21T13:13:27.217Z,100267.19
2023-03-21T13:16:52.065Z,100268.84
2023-03-21T13:20:06.647Z,100251.53
2023-03-21T13:23:09.914Z,100254.22
2023-03-21T13:26:12.869Z,100248.16
2023-03-21T13:29:28.494Z,100250.34
2023-03-21T13:32:40.772Z,100245.84
2023-03-21T13:35:45.044Z,100249.44
2023-03-21T13:38:53.510Z,100246.91
2023-03-21T13:42:03.817Z,100252.03
2023-03-21T13:45:11.743Z,100247.47
2023-03-21T13:48:29.800Z,100242.75
2023-03-21T13:51:43.807Z,100242.12
2023-03-21T13:54:56.081Z,100223.44
2023-03-21T13:57:58.899Z,100227.78
2023-03-21T14:01:41.740Z,100224.69
2023-03-21T14:05:03.679Z,100221.91
2023-03-21T14:08:15.645Z,100213.44
2023-03-21T14:11:21.705Z,100210.59
2023-03-21T14:14:29.756Z,100220.25
2023-03-21T14:17:35.469Z,100211.28
2023-03-21T14:20:42.273Z,100199.56
2023-03-21T14:23:45.180Z,100197.69
2023-03-21T14:26:53.512Z,100193.94
2023-03-21T14:29:58.769Z,100178.16
2023-03-21T14:33:42.085Z,100161.75
2023-03-21T14:36:51.635Z,100166.00
2023-03-21T14:40:02.484Z,100169.97
2023-03-21T14:43:06.654Z,100164.25
2023-03-21T14:46:13.542Z,100175.28
2023-03-21T14:49:22.627Z,100170.41
2023-03-21T14:52:31.716Z,100163.75
2023-03-21T14:55:43.240Z,100160.34
2023-03-21T14:58:47.356Z,100156.66
2023-03-21T15:01:54.215Z,100163.59
2023-03-21T15:04:59.226Z,100152.03
2023-03-21T15:08:24.049Z,100146.19
2023-03-21T15:11:35.977Z,100143.13
2023-03-21T15:14:41.848Z,100138.59
2023-03-21T15:17:44.676Z,100140.72
2023-03-21T15:20:50.362Z,100146.47
2023-03-21T15:23:56.911Z,100140.72
2023-03-21T15:27:05.023Z,100143.38
2023-03-21T15:30:21.064Z,100137.09
2023-03-21T15:33:25.602Z,100133.13
2023-03-21T15:36:33.280Z,100121.63
2023-03-21T15:39:36.585Z,100128.44
2023-03-21T15:42:41.395Z,100128.41
2023-03-21T15:45:56.742Z,100127.91
2023-03-21T15:49:17.269Z,100130.47
2023-03-21T15:52:20.482Z,100125.81
2023-03-21T15:55:43.634Z,100126.66
2023-03-21T15:58:49.167Z,100119.66
2023-03-21T16:01:52.444Z,100121.25
2023-03-21T16:05:01.663Z,100123.94
2023-03-21T16:08:21.255Z,100136.25
2023-03-21T16:11:28.473Z,100128.94
2023-03-21T16:14:31.122Z,100133.22
2023-03-21T16:17:39.596Z,100134.19
2023-03-21T16:20:45.161Z,100137.00
2023-03-21T16:23:49.367Z,100142.88
2023-03-21T16:26:53.434Z,100144.09
2023-03-21T16:29:56.445Z,100147.84
2023-03-21T16:32:59.134Z,100150.50
2023-03-21T16:36:02.805Z,100148.59
